Jefferson, NY (12093)

10:41 AM EDT en Agosto 29, 2016 (GMT -0400)
Charlotte Valley | | Change Station

Alt 1430 ft 42.52 °N, 74.72 °W | Updated 10 minutes ago

Scattered Clouds
Nubes dispersas
80.4 ° F
Sensación térmica 82 ° F
N
0.0
Viento Variable Viento desde ONO

Hoy
Alta -- | Baja -- ° F
--% Posibilidad de precipitaciones
Ayer
Alta -- | Baja -- ° F
Precip. -- pul
Presión 30.15 pul
Visibilidad 15.0 Millas
Nubes Nubes dispersas 2500 ft
Índice de calor 82 ° F
Punto de rocío 65 ° F
Humedad 59%
Precipitaciones 0.00 pul
Espesor de la nieve No disponible.
6:20 AM 7:36 PM
Creciente menguante, 8% visible
METAR KSCH 291350Z 30009KT 15SM SCT025 25/17 A3015
Presión 30.15 pul
Visibilidad 15.0 Millas
Nubes Nubes dispersas 2500 ft
Índice de calor 82 ° F
Punto de rocío 65 ° F
Humedad 59%
Precipitaciones 0.00 pul
Espesor de la nieve No disponible.
6:20 AM 7:36 PM
Creciente menguante, 8% visible
METAR KSCH 291350Z 30009KT 15SM SCT025 25/17 A3015

10-Day Weather Forecast

Almanac

Astronomía

Aug. 29, 2016 Salida Puesta
Hora real
Crepúsculo civil
Crepúsculo náutico
Crepúsculo astronómico
Luna
Horas de luz
Horas de luz
Tomorrow will be .
, % of the Moon is Illuminated

Extremos de hoy

Máximos del estado Bajos del estado

Community

WunderPhotos

Upload Photos

1,935,840 ¡fotos cargadas!

WunderBlog® & News

Nearby

Calidad del aire

  Calidad del aire Índice AQ Contaminante
Not available.

Grosos de nieve

Estación Profundido Altura

Actividad de terremotos

Ciudad Distance Mag. Tiempo y dato
Magnitud mínima muestra es 2,5.

Temperaturas de aguas costeras

Lugar Temperatura

Stations

Estaciones meteorológicas cercanas

Ubicación de la estación Temp. Vientos helados Punto de rocío Humedad Viento Precip. Alt Actualizado Tipo
                   

Watches & Warnings

There are currently no watches in effect.